Terminal Aerodrome Forecast
Issued by NWS Sioux Falls, SD

Home | Current Version | Previous Version | Text Only | Print | Product List | Glossary On
Versions: 1 2 3 4 5 6 7 8 9 10 11 12 13 14
000
FTUS43 KFSD 170522
TAFHON
TAF
KHON 170522Z 1706/1806 31010KT P6SM SCT015 BKN070
     FM170800 32010KT P6SM FEW070
     FM171500 31007KT P6SM FEW250
     FM180300 18004KT P6SM FEW250=

USA.gov is the U.S. government's official web portal to all federal, state and local government web resources and services.